Henderson, Michigan
Current Conditions -  °F | °C
As of 6:15 PM on Wednesday 17 Dec 2014 (Local Time) from KRNP Reporting Station
Overcast Overcast  
Wind Chill: 17°   Ceiling: 2800
Heat Index: 28°   Visibility: 10mi
Dew Point: 20°   Wind: 14mph
Humidity: 73%   Direction: 270°W
Pressure: 30.11"   Gusts: 21mph
Location:  43.09°N, 84.2°W
Report Text: KRNP 172315Z AUTO 27012G18KT 10SM OVC028 M02/M07 A3011 RMK AO2 T10231066
Loading
Personal Weather Stations






























Interactive Weather Map New forecast layout! Learn more

10-Day Weather Forecast

Advertisements
Track Severe Weather on mobile